createdAt,value
2018-02-18T00:00:11.299Z,85.30
2018-02-18T00:01:05.610Z,85.30
2018-02-18T00:02:05.655Z,85.30
2018-02-18T00:03:11.379Z,85.40
2018-02-18T00:04:11.249Z,85.40
2018-02-18T00:05:06.285Z,85.40
2018-02-18T00:06:08.268Z,85.40
2018-02-18T00:07:09.290Z,85.40
2018-02-18T00:08:08.807Z,85.30
2018-02-18T00:09:16.319Z,85.50
2018-02-18T00:10:06.252Z,85.50
2018-02-18T00:11:10.627Z,85.30
2018-02-18T00:12:06.072Z,85.50
2018-02-18T00:13:05.865Z,85.50
2018-02-18T00:14:06.048Z,85.50
2018-02-18T00:15:06.185Z,85.40
2018-02-18T00:16:09.659Z,85.60
2018-02-18T00:17:06.326Z,85.50
2018-02-18T00:18:05.878Z,85.60
2018-02-18T00:19:07.124Z,85.50
2018-02-18T00:20:06.418Z,85.60
2018-02-18T00:21:08.157Z,85.50
2018-02-18T00:22:05.499Z,85.50
2018-02-18T00:23:10.566Z,85.60
2018-02-18T00:24:09.235Z,85.70
2018-02-18T00:25:05.856Z,85.70
2018-02-18T00:26:05.476Z,85.70
2018-02-18T00:27:06.122Z,85.70
2018-02-18T00:28:06.149Z,85.70
2018-02-18T00:29:06.393Z,85.70
2018-02-18T00:30:05.979Z,85.80
2018-02-18T00:31:05.471Z,85.60
2018-02-18T00:32:05.891Z,85.80
2018-02-18T00:33:06.092Z,85.80
2018-02-18T00:34:05.793Z,85.60
2018-02-18T00:35:07.206Z,85.70
2018-02-18T00:36:08.117Z,85.70
2018-02-18T00:37:08.012Z,85.70
2018-02-18T00:38:06.307Z,85.80
2018-02-18T00:39:08.467Z,85.80
2018-02-18T00:40:05.778Z,85.80
2018-02-18T00:41:10.648Z,85.90
2018-02-18T00:42:06.007Z,85.80
2018-02-18T00:43:06.018Z,86.00
2018-02-18T00:44:05.983Z,85.80
2018-02-18T00:45:06.265Z,86.00
2018-02-18T00:46:05.733Z,86.00
2018-02-18T00:47:08.715Z,85.90
2018-02-18T00:48:05.610Z,85.90
2018-02-18T00:49:06.491Z,85.90
2018-02-18T00:50:05.907Z,85.90
2018-02-18T00:51:06.102Z,85.90
2018-02-18T00:52:05.751Z,86.00
2018-02-18T00:53:06.561Z,86.00
2018-02-18T00:54:11.207Z,86.00
2018-02-18T00:55:11.273Z,86.00
2018-02-18T00:56:10.880Z,85.90
2018-02-18T00:57:11.250Z,85.90
2018-02-18T00:58:10.696Z,85.90
2018-02-18T00:59:06.031Z,85.90
2018-02-18T01:00:05.755Z,85.90
2018-02-18T01:01:05.704Z,85.90
2018-02-18T01:02:06.086Z,85.90
2018-02-18T01:03:08.718Z,86.00
2018-02-18T01:04:06.198Z,85.90
2018-02-18T01:05:08.445Z,86.00
2018-02-18T01:06:05.730Z,85.90
2018-02-18T01:07:08.654Z,86.10
2018-02-18T01:08:06.034Z,85.90
2018-02-18T01:09:05.611Z,85.90
2018-02-18T01:10:06.214Z,85.90
2018-02-18T01:11:05.703Z,86.00
2018-02-18T01:12:12.211Z,86.00
2018-02-18T01:13:05.582Z,86.00
2018-02-18T01:14:05.946Z,86.00
2018-02-18T01:15:09.246Z,86.00
2018-02-18T01:16:10.184Z,86.00
2018-02-18T01:17:09.130Z,86.00
2018-02-18T01:18:08.447Z,86.00
2018-02-18T01:19:10.949Z,86.00
2018-02-18T01:20:06.496Z,86.00
2018-02-18T01:21:06.152Z,86.00
2018-02-18T01:22:08.120Z,86.10
2018-02-18T01:23:05.462Z,86.00
2018-02-18T01:24:11.133Z,86.00
2018-02-18T01:25:09.843Z,86.10
2018-02-18T01:26:06.444Z,86.10
2018-02-18T01:27:05.885Z,86.10
2018-02-18T01:28:10.918Z,86.10
2018-02-18T01:29:06.250Z,86.10
2018-02-18T01:30:06.330Z,86.10
2018-02-18T01:31:08.015Z,86.10
2018-02-18T01:32:09.920Z,86.10
2018-02-18T01:33:06.279Z,86.10
2018-02-18T01:34:06.383Z,86.10
2018-02-18T01:35:05.698Z,86.10
2018-02-18T01:36:10.741Z,86.10
2018-02-18T01:37:06.167Z,86.10
2018-02-18T01:38:06.193Z,86.10
2018-02-18T01:39:06.120Z,86.10
2018-02-18T01:40:06.370Z,86.10
2018-02-18T01:41:06.047Z,86.10
2018-02-18T01:42:05.688Z,86.10
2018-02-18T01:43:06.467Z,86.10
2018-02-18T01:44:10.629Z,86.10
2018-02-18T01:45:09.179Z,86.10
2018-02-18T01:46:10.686Z,86.20
2018-02-18T01:47:10.916Z,86.20
2018-02-18T01:48:11.316Z,86.30
2018-02-18T01:49:05.356Z,86.20
2018-02-18T01:50:09.875Z,86.30
2018-02-18T01:51:06.341Z,86.30
2018-02-18T01:52:10.421Z,86.30
2018-02-18T01:53:09.144Z,86.30
2018-02-18T01:54:05.748Z,86.30
2018-02-18T01:55:09.567Z,86.30
2018-02-18T01:56:05.921Z,86.30
2018-02-18T01:57:10.652Z,86.30
2018-02-18T01:58:05.637Z,86.40
2018-02-18T01:59:06.214Z,86.40
2018-02-18T02:00:08.502Z,86.40
2018-02-18T02:01:05.455Z,86.40
2018-02-18T02:02:08.476Z,86.40
2018-02-18T02:03:08.408Z,86.30
2018-02-18T02:04:05.783Z,86.40
2018-02-18T02:05:07.313Z,86.30
2018-02-18T02:06:05.694Z,86.30
2018-02-18T02:07:05.800Z,86.30
2018-02-18T02:08:09.421Z,86.30
2018-02-18T02:09:05.765Z,86.30
2018-02-18T02:10:06.380Z,86.40
2018-02-18T02:11:06.195Z,86.40
2018-02-18T02:12:05.721Z,86.40
2018-02-18T02:13:05.574Z,86.50
2018-02-18T02:14:11.318Z,86.50
2018-02-18T02:15:05.748Z,86.50
2018-02-18T02:16:06.150Z,86.50
2018-02-18T02:17:06.376Z,86.60
2018-02-18T02:18:06.064Z,86.60
2018-02-18T02:19:06.405Z,86.60
2018-02-18T02:20:06.276Z,86.60
2018-02-18T02:21:08.352Z,86.70
2018-02-18T02:22:05.710Z,86.70
2018-02-18T02:23:08.855Z,86.70
2018-02-18T02:24:06.213Z,86.60
2018-02-18T02:25:06.169Z,86.70
2018-02-18T02:26:08.143Z,86.70
2018-02-18T02:27:07.995Z,86.70
2018-02-18T02:28:10.014Z,86.70
2018-02-18T02:29:11.473Z,86.70
2018-02-18T02:30:05.629Z,86.70
2018-02-18T02:31:06.609Z,86.70
2018-02-18T02:32:09.492Z,86.70
2018-02-18T02:33:05.938Z,86.70
2018-02-18T02:34:08.124Z,86.80
2018-02-18T02:35:08.800Z,86.70
2018-02-18T02:36:11.180Z,86.70
2018-02-18T02:37:08.173Z,86.80
2018-02-18T02:38:05.468Z,86.80
2018-02-18T02:39:08.974Z,86.80
2018-02-18T02:40:06.414Z,86.80
2018-02-18T02:41:05.929Z,86.80
2018-02-18T02:42:08.074Z,86.80
2018-02-18T02:43:05.644Z,86.80
2018-02-18T02:44:05.844Z,86.80
2018-02-18T02:45:08.803Z,86.90
2018-02-18T02:46:06.405Z,86.90
2018-02-18T02:47:11.615Z,86.90
2018-02-18T02:48:06.229Z,86.90
2018-02-18T02:49:09.202Z,86.90
2018-02-18T02:50:08.833Z,86.90
2018-02-18T02:51:11.222Z,87.00
2018-02-18T02:52:09.952Z,87.00
2018-02-18T02:53:06.674Z,87.00
2018-02-18T02:54:06.160Z,87.00
2018-02-18T02:55:11.232Z,87.00
2018-02-18T02:56:09.642Z,87.00
2018-02-18T02:57:11.052Z,87.00
2018-02-18T02:58:08.776Z,87.00
2018-02-18T02:59:06.373Z,87.00
2018-02-18T03:00:08.224Z,87.00
2018-02-18T03:01:08.046Z,87.00
2018-02-18T03:02:06.361Z,87.00
2018-02-18T03:03:06.071Z,87.00
2018-02-18T03:04:09.194Z,87.00
2018-02-18T03:05:05.552Z,87.00
2018-02-18T03:06:05.573Z,87.00
2018-02-18T03:07:08.563Z,87.00
2018-02-18T03:08:08.816Z,87.00
2018-02-18T03:09:06.382Z,87.00
2018-02-18T03:10:09.386Z,87.00
2018-02-18T03:11:08.744Z,87.00
2018-02-18T03:12:11.067Z,87.00
2018-02-18T03:13:06.270Z,87.00
2018-02-18T03:14:06.390Z,87.00
2018-02-18T03:15:05.906Z,87.00
2018-02-18T03:16:05.572Z,86.90
2018-02-18T03:17:11.166Z,86.90
2018-02-18T03:18:06.288Z,86.90
2018-02-18T03:19:05.907Z,87.00
2018-02-18T03:20:05.465Z,86.90
2018-02-18T03:21:06.166Z,86.90
2018-02-18T03:22:09.316Z,86.90
2018-02-18T03:23:06.653Z,86.90
2018-02-18T03:24:09.196Z,86.90
2018-02-18T03:25:05.556Z,86.90
2018-02-18T03:26:06.433Z,86.90
2018-02-18T03:27:06.212Z,87.00
2018-02-18T03:28:05.769Z,86.90
2018-02-18T03:29:09.485Z,87.00
2018-02-18T03:30:05.995Z,87.00
2018-02-18T03:31:09.467Z,87.00
2018-02-18T03:32:09.040Z,87.00
2018-02-18T03:33:05.391Z,87.00
2018-02-18T03:34:05.704Z,87.00
2018-02-18T03:35:06.206Z,87.00
2018-02-18T03:36:08.825Z,87.00
2018-02-18T03:37:06.244Z,87.00
2018-02-18T03:38:09.067Z,87.00
2018-02-18T03:39:08.790Z,87.00
2018-02-18T03:40:06.165Z,87.00
2018-02-18T03:41:06.000Z,87.00
2018-02-18T03:42:08.852Z,86.90
2018-02-18T03:43:06.439Z,87.00
2018-02-18T03:44:10.564Z,87.00
2018-02-18T03:45:05.709Z,87.00
2018-02-18T03:46:06.206Z,87.00
2018-02-18T03:47:06.316Z,87.00
2018-02-18T03:48:05.930Z,87.00
2018-02-18T03:49:10.731Z,87.10
2018-02-18T03:50:06.283Z,87.10
2018-02-18T03:51:05.923Z,87.10
2018-02-18T03:52:05.450Z,87.10
2018-02-18T03:53:06.496Z,87.10
2018-02-18T03:54:06.212Z,87.10
2018-02-18T03:55:05.833Z,87.10
2018-02-18T03:56:05.535Z,87.20
2018-02-18T03:57:05.904Z,87.20
2018-02-18T03:58:05.679Z,87.20
2018-02-18T03:59:06.216Z,87.20
2018-02-18T04:00:06.263Z,87.20
2018-02-18T04:01:06.047Z,87.20
2018-02-18T04:02:05.670Z,87.20
2018-02-18T04:03:06.287Z,87.20
2018-02-18T04:04:05.714Z,87.20
2018-02-18T04:05:06.256Z,87.20
2018-02-18T04:06:05.989Z,87.20
2018-02-18T04:07:05.799Z,87.20
2018-02-18T04:08:05.866Z,87.30
2018-02-18T04:09:06.341Z,87.30
2018-02-18T04:10:06.115Z,87.30
2018-02-18T04:11:11.403Z,87.30
2018-02-18T04:12:06.284Z,87.30
2018-02-18T04:13:05.671Z,87.30
2018-02-18T04:14:09.092Z,87.30
2018-02-18T04:15:05.651Z,87.30
2018-02-18T04:16:05.995Z,87.30
2018-02-18T04:17:11.018Z,87.30
2018-02-18T04:18:08.989Z,87.30
2018-02-18T04:19:06.379Z,87.30
2018-02-18T04:20:06.345Z,87.30
2018-02-18T04:21:09.102Z,87.20
2018-02-18T04:22:05.798Z,87.30
2018-02-18T04:23:06.403Z,87.30
2018-02-18T04:24:09.270Z,87.30
2018-02-18T04:25:05.654Z,87.30
2018-02-18T04:26:08.999Z,87.20
2018-02-18T04:27:06.309Z,87.30
2018-02-18T04:28:06.375Z,87.30
2018-02-18T04:29:11.077Z,87.30
2018-02-18T04:30:05.504Z,87.30
2018-02-18T04:31:06.277Z,87.40
2018-02-18T04:32:05.916Z,87.30
2018-02-18T04:33:09.198Z,87.30
2018-02-18T04:34:05.590Z,87.30
2018-02-18T04:35:05.918Z,87.20
2018-02-18T04:36:06.235Z,87.20
2018-02-18T04:37:05.577Z,87.20
2018-02-18T04:38:06.121Z,87.20
2018-02-18T04:39:05.483Z,87.30
2018-02-18T04:40:08.632Z,87.30
2018-02-18T04:41:06.129Z,87.30
2018-02-18T04:42:06.524Z,87.30
2018-02-18T04:43:06.091Z,87.30
2018-02-18T04:44:09.098Z,87.40
2018-02-18T04:45:05.399Z,87.40
2018-02-18T04:46:11.220Z,87.40
2018-02-18T04:47:06.507Z,87.40
2018-02-18T04:48:06.398Z,87.40
2018-02-18T04:49:06.525Z,87.40
2018-02-18T04:50:06.399Z,87.40
2018-02-18T04:51:05.933Z,87.40
2018-02-18T04:52:05.797Z,87.40
2018-02-18T04:53:10.644Z,87.40
2018-02-18T04:54:08.435Z,87.40
2018-02-18T04:55:10.821Z,87.50
2018-02-18T04:56:06.138Z,87.40
2018-02-18T04:57:05.623Z,87.50
2018-02-18T04:58:06.290Z,87.50
2018-02-18T04:59:05.870Z,87.50
2018-02-18T05:00:05.925Z,87.40
2018-02-18T05:01:05.821Z,87.40
2018-02-18T05:02:05.713Z,87.40
2018-02-18T05:03:11.066Z,87.40
2018-02-18T05:04:06.200Z,87.50
2018-02-18T05:05:05.712Z,87.60
2018-02-18T05:06:05.452Z,87.60
2018-02-18T05:07:10.440Z,87.50
2018-02-18T05:08:05.779Z,87.50
2018-02-18T05:09:05.778Z,87.50
2018-02-18T05:10:06.045Z,87.50
2018-02-18T05:11:05.687Z,87.60
2018-02-18T05:12:07.137Z,87.50
2018-02-18T05:13:05.666Z,87.40
2018-02-18T05:14:08.555Z,87.40
2018-02-18T05:15:10.996Z,87.50
2018-02-18T05:16:06.405Z,87.50
2018-02-18T05:17:06.052Z,87.40
2018-02-18T05:18:09.051Z,87.50
2018-02-18T05:19:05.469Z,87.40
2018-02-18T05:20:05.909Z,87.40
2018-02-18T05:21:10.992Z,87.50
2018-02-18T05:22:06.177Z,87.50
2018-02-18T05:23:05.871Z,87.50
2018-02-18T05:24:05.491Z,87.50
2018-02-18T05:25:06.449Z,87.50
2018-02-18T05:26:05.661Z,87.50
2018-02-18T05:27:10.585Z,87.50
2018-02-18T05:28:06.024Z,87.50
2018-02-18T05:29:05.476Z,87.50
2018-02-18T05:30:05.950Z,87.50
2018-02-18T05:31:05.830Z,87.40
2018-02-18T05:32:05.991Z,87.50
2018-02-18T05:33:05.980Z,87.40
2018-02-18T05:34:05.461Z,87.50
2018-02-18T05:35:06.537Z,87.50
2018-02-18T05:36:05.622Z,87.40
2018-02-18T05:37:05.954Z,87.40
2018-02-18T05:38:07.058Z,87.50
2018-02-18T05:39:07.909Z,87.50
2018-02-18T05:40:06.188Z,87.40
2018-02-18T05:41:05.594Z,87.50
2018-02-18T05:42:06.312Z,87.50
2018-02-18T05:43:09.030Z,87.40
2018-02-18T05:44:09.873Z,87.50
2018-02-18T05:45:08.744Z,87.40
2018-02-18T05:46:05.669Z,87.30
2018-02-18T05:47:10.787Z,87.40
2018-02-18T05:48:09.043Z,87.50
2018-02-18T05:49:05.506Z,87.40
2018-02-18T05:50:06.187Z,87.50
2018-02-18T05:51:08.218Z,87.50
2018-02-18T05:52:05.514Z,87.50
2018-02-18T05:53:05.488Z,87.50
2018-02-18T05:54:05.872Z,87.40
2018-02-18T05:55:09.638Z,87.50
2018-02-18T05:56:05.981Z,87.40
2018-02-18T05:57:06.241Z,87.40
2018-02-18T05:58:10.930Z,87.40
2018-02-18T05:59:05.584Z,87.40
2018-02-18T06:00:06.128Z,87.40
2018-02-18T06:01:09.753Z,87.50
2018-02-18T06:02:06.343Z,87.50
2018-02-18T06:03:08.851Z,87.50
2018-02-18T06:04:06.368Z,87.50
2018-02-18T06:05:05.847Z,87.50
2018-02-18T06:06:10.503Z,87.50
2018-02-18T06:07:09.568Z,87.50
2018-02-18T06:08:09.641Z,87.50
2018-02-18T06:09:08.479Z,87.50
2018-02-18T06:10:06.030Z,87.50
2018-02-18T06:11:05.459Z,87.60
2018-02-18T06:12:09.237Z,87.50
2018-02-18T06:13:09.072Z,87.60
2018-02-18T06:14:05.612Z,87.60
2018-02-18T06:15:06.082Z,87.50
2018-02-18T06:16:10.561Z,87.60
2018-02-18T06:17:10.654Z,87.60
2018-02-18T06:18:05.829Z,87.60
2018-02-18T06:19:11.260Z,87.60
2018-02-18T06:20:05.654Z,87.60
2018-02-18T06:21:06.383Z,87.50
2018-02-18T06:22:06.004Z,87.50
2018-02-18T06:23:05.849Z,87.50
2018-02-18T06:24:06.373Z,87.60
2018-02-18T06:25:06.083Z,87.50
2018-02-18T06:26:06.169Z,87.50
2018-02-18T06:27:11.077Z,87.60
2018-02-18T06:28:07.928Z,87.60
2018-02-18T06:29:08.782Z,87.60
2018-02-18T06:30:06.402Z,87.60
2018-02-18T06:31:05.552Z,87.60
2018-02-18T06:32:08.729Z,87.60
2018-02-18T06:33:11.157Z,87.60
2018-02-18T06:34:08.924Z,87.60
2018-02-18T06:35:06.248Z,87.60
2018-02-18T06:36:06.028Z,87.60
2018-02-18T06:37:06.117Z,87.60
2018-02-18T06:38:06.040Z,87.70
2018-02-18T06:39:06.154Z,87.70
2018-02-18T06:40:08.717Z,87.70
2018-02-18T06:41:06.052Z,87.70
2018-02-18T06:42:10.418Z,87.70
2018-02-18T06:43:09.375Z,87.80
2018-02-18T06:44:05.741Z,87.70
2018-02-18T06:45:10.686Z,87.80
2018-02-18T06:46:06.089Z,87.70
2018-02-18T06:47:06.048Z,87.80
2018-02-18T06:48:06.358Z,87.80
2018-02-18T06:49:11.118Z,87.90
2018-02-18T06:50:09.228Z,87.80
2018-02-18T06:51:10.662Z,87.80
2018-02-18T06:52:05.908Z,87.80
2018-02-18T06:53:11.913Z,87.90
2018-02-18T06:54:06.267Z,87.90
2018-02-18T06:55:06.127Z,87.90
2018-02-18T06:56:05.770Z,87.90
2018-02-18T06:57:06.453Z,88.00
2018-02-18T06:58:09.128Z,87.90
2018-02-18T06:59:05.580Z,87.80
2018-02-18T07:00:09.458Z,87.80
2018-02-18T07:01:05.810Z,87.80
2018-02-18T07:02:05.557Z,87.80
2018-02-18T07:03:09.801Z,87.80
2018-02-18T07:04:06.141Z,87.80
2018-02-18T07:05:09.256Z,87.80
2018-02-18T07:06:08.872Z,87.80
2018-02-18T07:07:06.447Z,87.80
2018-02-18T07:08:08.801Z,87.80
2018-02-18T07:09:06.165Z,87.80
2018-02-18T07:10:05.425Z,87.80
2018-02-18T07:11:10.788Z,87.80
2018-02-18T07:12:06.242Z,87.80
2018-02-18T07:13:06.095Z,87.80
2018-02-18T07:14:11.261Z,87.80
2018-02-18T07:15:06.369Z,87.80
2018-02-18T07:16:11.025Z,87.90
2018-02-18T07:17:06.106Z,87.90
2018-02-18T07:18:05.923Z,87.90
2018-02-18T07:19:06.396Z,87.80
2018-02-18T07:20:08.853Z,87.90
2018-02-18T07:21:06.197Z,87.90
2018-02-18T07:22:05.834Z,87.90
2018-02-18T07:23:06.189Z,87.80
2018-02-18T07:24:11.137Z,87.80
2018-02-18T07:25:06.429Z,87.90
2018-02-18T07:26:05.447Z,87.80
2018-02-18T07:27:05.861Z,87.80
2018-02-18T07:28:09.776Z,87.80
2018-02-18T07:29:06.219Z,87.80
2018-02-18T07:30:14.501Z,87.80
2018-02-18T07:31:06.102Z,87.80
2018-02-18T07:32:06.113Z,87.80
2018-02-18T07:33:05.970Z,87.80
2018-02-18T07:34:07.388Z,87.80
2018-02-18T07:35:05.918Z,87.80
2018-02-18T07:36:15.568Z,87.80
2018-02-18T07:37:11.001Z,87.90
2018-02-18T07:38:09.433Z,87.90
2018-02-18T07:39:05.800Z,87.90
2018-02-18T07:40:14.249Z,87.90
2018-02-18T07:41:05.690Z,87.90
2018-02-18T07:42:06.003Z,88.00
2018-02-18T07:43:08.170Z,88.00
2018-02-18T07:44:08.310Z,88.00
2018-02-18T07:45:05.649Z,88.00
2018-02-18T07:46:06.335Z,88.00
2018-02-18T07:47:06.367Z,88.00
2018-02-18T07:48:05.865Z,88.20
2018-02-18T07:49:08.833Z,88.20
2018-02-18T07:50:06.167Z,88.00
2018-02-18T07:51:08.096Z,88.20
2018-02-18T07:52:05.413Z,88.20
2018-02-18T07:53:10.985Z,88.10
2018-02-18T07:54:06.187Z,88.20
2018-02-18T07:55:10.897Z,88.20
2018-02-18T07:56:09.612Z,88.20
2018-02-18T07:57:13.538Z,88.20
2018-02-18T07:58:07.930Z,88.20
2018-02-18T07:59:06.273Z,88.20
2018-02-18T08:00:13.260Z,88.20
2018-02-18T08:01:05.827Z,88.20
2018-02-18T08:02:06.332Z,88.20
2018-02-18T08:03:08.670Z,88.30
2018-02-18T08:04:10.521Z,88.30
2018-02-18T08:05:05.888Z,88.20
2018-02-18T08:06:05.945Z,88.20
2018-02-18T08:07:06.370Z,88.20
2018-02-18T08:08:08.943Z,88.20
2018-02-18T08:09:06.268Z,88.20
2018-02-18T08:10:06.145Z,88.20
2018-02-18T08:11:06.121Z,88.20
2018-02-18T08:12:06.391Z,88.20
2018-02-18T08:13:08.177Z,88.20
2018-02-18T08:14:05.687Z,88.20
2018-02-18T08:15:11.366Z,88.20
2018-02-18T08:16:06.610Z,88.20
2018-02-18T08:17:06.139Z,88.30
2018-02-18T08:18:05.545Z,88.20
2018-02-18T08:19:11.148Z,88.30
2018-02-18T08:20:10.595Z,88.20
2018-02-18T08:21:11.032Z,88.30
2018-02-18T08:22:08.666Z,88.30
2018-02-18T08:23:06.083Z,88.30
2018-02-18T08:24:05.821Z,88.30
2018-02-18T08:25:05.574Z,88.30
2018-02-18T08:26:05.912Z,88.30
2018-02-18T08:27:10.899Z,88.30
2018-02-18T08:28:12.112Z,88.30
2018-02-18T08:29:05.484Z,88.30
2018-02-18T08:30:05.967Z,88.30
2018-02-18T08:31:05.523Z,88.30
2018-02-18T08:32:05.715Z,88.30
2018-02-18T08:33:06.000Z,88.30
2018-02-18T08:34:11.173Z,88.30
2018-02-18T08:35:05.536Z,88.20
2018-02-18T08:36:10.641Z,88.20
2018-02-18T08:37:05.541Z,88.30
2018-02-18T08:38:05.967Z,88.30
2018-02-18T08:39:05.421Z,88.30
2018-02-18T08:40:05.679Z,88.40
2018-02-18T08:41:06.216Z,88.30
2018-02-18T08:42:09.882Z,88.30
2018-02-18T08:43:06.499Z,88.30
2018-02-18T08:44:05.949Z,88.30
2018-02-18T08:45:05.960Z,88.30
2018-02-18T08:46:05.817Z,88.30
2018-02-18T08:47:08.093Z,88.30
2018-02-18T08:48:07.996Z,88.30
2018-02-18T08:49:06.329Z,88.30
2018-02-18T08:50:06.211Z,88.30
2018-02-18T08:51:05.946Z,88.30
2018-02-18T08:52:05.782Z,88.40
2018-02-18T08:53:06.266Z,88.30
2018-02-18T08:54:05.424Z,88.30
2018-02-18T08:55:07.126Z,88.30
2018-02-18T08:56:08.076Z,88.30
2018-02-18T08:57:05.440Z,88.30
2018-02-18T08:58:05.990Z,88.30
2018-02-18T08:59:05.478Z,88.30
2018-02-18T09:00:11.207Z,88.30
2018-02-18T09:01:06.572Z,88.30
2018-02-18T09:02:06.097Z,88.30
2018-02-18T09:03:06.056Z,88.30
2018-02-18T09:04:09.007Z,88.30
2018-02-18T09:05:06.411Z,88.30
2018-02-18T09:06:06.178Z,88.40
2018-02-18T09:07:05.831Z,88.30
2018-02-18T09:08:06.486Z,88.40
2018-02-18T09:09:05.597Z,88.30
2018-02-18T09:10:07.288Z,88.30
2018-02-18T09:11:13.040Z,88.30
2018-02-18T09:12:06.361Z,88.30
2018-02-18T09:13:09.161Z,88.30
2018-02-18T09:14:10.606Z,88.30
2018-02-18T09:15:08.327Z,88.30
2018-02-18T09:16:10.804Z,88.30
2018-02-18T09:17:09.120Z,88.20
2018-02-18T09:18:10.630Z,88.20
2018-02-18T09:19:05.872Z,88.20
2018-02-18T09:20:05.991Z,88.20
2018-02-18T09:21:06.766Z,88.30
2018-02-18T09:22:11.134Z,88.30
2018-02-18T09:23:07.148Z,88.20
2018-02-18T09:24:06.078Z,88.30
2018-02-18T09:25:11.384Z,88.30
2018-02-18T09:26:05.833Z,88.30
2018-02-18T09:27:10.439Z,88.30
2018-02-18T09:28:06.263Z,88.30
2018-02-18T09:29:08.909Z,88.40
2018-02-18T09:30:06.579Z,88.30
2018-02-18T09:31:11.227Z,88.10
2018-02-18T09:32:05.772Z,88.30
2018-02-18T09:33:11.394Z,88.10
2018-02-18T09:34:06.377Z,88.10
2018-02-18T09:35:06.379Z,88.10
2018-02-18T09:36:05.841Z,88.00
2018-02-18T09:37:05.610Z,87.90
2018-02-18T09:38:06.578Z,87.90
2018-02-18T09:39:05.763Z,87.90
2018-02-18T09:40:08.510Z,87.80
2018-02-18T09:41:06.254Z,87.80
2018-02-18T09:42:05.683Z,87.80
2018-02-18T09:43:06.019Z,87.70
2018-02-18T09:44:06.042Z,87.80
2018-02-18T09:45:06.023Z,87.70
2018-02-18T09:46:05.580Z,87.70
2018-02-18T09:47:08.943Z,87.70
2018-02-18T09:48:06.413Z,87.80
2018-02-18T09:49:11.239Z,87.70
2018-02-18T09:50:05.979Z,87.70
2018-02-18T09:51:05.789Z,87.70
2018-02-18T09:52:05.965Z,87.70
2018-02-18T09:53:10.497Z,87.60
2018-02-18T09:54:09.777Z,87.50
2018-02-18T09:55:06.695Z,87.50
2018-02-18T09:56:06.066Z,87.50
2018-02-18T09:57:08.024Z,87.40
2018-02-18T09:58:06.428Z,87.40
2018-02-18T09:59:06.226Z,87.50
2018-02-18T10:00:05.975Z,87.50
2018-02-18T10:01:07.253Z,87.40
2018-02-18T10:02:08.923Z,87.50
2018-02-18T10:03:11.307Z,87.50
2018-02-18T10:04:06.541Z,87.40
2018-02-18T10:05:09.121Z,87.40
2018-02-18T10:06:05.472Z,87.40
2018-02-18T10:07:06.222Z,87.40
2018-02-18T10:08:10.671Z,87.40
2018-02-18T10:09:06.047Z,87.40
2018-02-18T10:10:05.723Z,87.40
2018-02-18T10:11:06.019Z,87.40
2018-02-18T10:12:05.905Z,87.30
2018-02-18T10:13:05.617Z,87.30
2018-02-18T10:14:05.520Z,87.30
2018-02-18T10:15:11.278Z,87.30
2018-02-18T10:16:09.483Z,87.20
2018-02-18T10:17:10.858Z,87.20
2018-02-18T10:18:11.057Z,87.20
2018-02-18T10:19:05.348Z,87.20
2018-02-18T10:20:05.875Z,87.20
2018-02-18T10:21:06.142Z,87.30
2018-02-18T10:22:05.432Z,87.10
2018-02-18T10:23:05.941Z,87.10
2018-02-18T10:24:08.944Z,86.90
2018-02-18T10:25:11.393Z,86.90
2018-02-18T10:26:06.047Z,86.90
2018-02-18T10:27:05.464Z,86.70
2018-02-18T10:28:11.026Z,86.80
2018-02-18T10:29:08.733Z,86.80
2018-02-18T10:30:06.424Z,86.90
2018-02-18T10:31:06.048Z,86.80
2018-02-18T10:32:05.717Z,86.90
2018-02-18T10:33:10.537Z,86.80
2018-02-18T10:34:05.850Z,86.70
2018-02-18T10:35:05.666Z,86.70
2018-02-18T10:36:08.683Z,86.40
2018-02-18T10:37:07.966Z,86.40
2018-02-18T10:38:09.130Z,86.40
2018-02-18T10:39:05.462Z,86.30
2018-02-18T10:40:06.109Z,86.30
2018-02-18T10:41:09.625Z,86.20
2018-02-18T10:42:06.044Z,86.20
2018-02-18T10:43:08.859Z,86.20
2018-02-18T10:44:05.842Z,86.20
2018-02-18T10:45:05.963Z,86.10
2018-02-18T10:46:10.969Z,86.10
2018-02-18T10:47:11.370Z,85.90
2018-02-18T10:48:05.809Z,85.90
2018-02-18T10:49:06.379Z,85.60
2018-02-18T10:50:05.896Z,85.70
2018-02-18T10:51:08.934Z,85.70
2018-02-18T10:52:06.386Z,85.70
2018-02-18T10:53:05.494Z,85.60
2018-02-18T10:54:05.828Z,85.30
2018-02-18T10:55:05.805Z,84.80
2018-02-18T10:56:06.219Z,84.00
2018-02-18T10:57:09.035Z,83.80
2018-02-18T10:58:06.355Z,83.80
2018-02-18T10:59:11.324Z,83.80
2018-02-18T11:00:06.170Z,83.70
2018-02-18T11:01:06.086Z,83.50
2018-02-18T11:02:08.330Z,83.00
2018-02-18T11:03:05.745Z,82.80
2018-02-18T11:04:06.102Z,79.60
2018-02-18T11:05:06.958Z,78.60
2018-02-18T11:06:08.088Z,78.80
2018-02-18T11:07:05.385Z,78.80
2018-02-18T11:08:06.261Z,78.50
2018-02-18T11:09:06.552Z,77.70
2018-02-18T11:10:05.793Z,77.00
2018-02-18T11:11:05.807Z,75.20
2018-02-18T11:12:08.778Z,74.40
2018-02-18T11:13:06.166Z,74.30
2018-02-18T11:14:06.168Z,72.70
2018-02-18T11:15:06.219Z,73.60
2018-02-18T11:16:11.144Z,73.00
2018-02-18T11:17:05.961Z,72.60
2018-02-18T11:18:05.499Z,72.60
2018-02-18T11:19:08.092Z,71.50
2018-02-18T11:20:09.655Z,70.50
2018-02-18T11:21:05.552Z,70.50
2018-02-18T11:22:05.886Z,70.00
2018-02-18T11:23:09.453Z,70.20
2018-02-18T11:24:05.827Z,70.10
2018-02-18T11:25:11.166Z,69.30
2018-02-18T11:26:06.276Z,68.90
2018-02-18T11:27:05.692Z,69.40
2018-02-18T11:28:09.145Z,68.50
2018-02-18T11:29:05.692Z,68.50
2018-02-18T11:30:06.349Z,68.60
2018-02-18T11:31:06.258Z,69.40
2018-02-18T11:32:10.530Z,69.40
2018-02-18T11:33:06.019Z,69.80
2018-02-18T11:34:06.365Z,70.00
2018-02-18T11:35:13.938Z,70.20
2018-02-18T11:36:08.959Z,70.30
2018-02-18T11:37:06.419Z,70.40
2018-02-18T11:38:06.077Z,69.80
2018-02-18T11:39:11.294Z,68.80
2018-02-18T11:40:09.052Z,68.90
2018-02-18T11:41:12.973Z,69.00
2018-02-18T11:42:09.951Z,68.60
2018-02-18T11:43:08.098Z,68.80
2018-02-18T11:44:05.476Z,68.80
2018-02-18T11:45:06.400Z,69.30
2018-02-18T11:46:11.064Z,69.30
2018-02-18T11:47:11.557Z,69.00
2018-02-18T11:48:05.849Z,68.80
2018-02-18T11:49:08.129Z,67.60
2018-02-18T11:50:05.475Z,67.70
2018-02-18T11:51:06.457Z,67.50
2018-02-18T11:52:06.189Z,68.00
2018-02-18T11:53:06.218Z,68.40
2018-02-18T11:54:06.222Z,68.10
2018-02-18T11:55:08.312Z,68.20
2018-02-18T11:56:05.743Z,68.30
2018-02-18T11:57:05.683Z,68.50
2018-02-18T11:58:08.669Z,69.20
2018-02-18T11:59:06.014Z,69.10
2018-02-18T12:00:09.592Z,69.50
2018-02-18T12:01:11.010Z,69.50
2018-02-18T12:02:06.325Z,69.80
2018-02-18T12:03:05.875Z,69.60
2018-02-18T12:04:06.457Z,69.10
2018-02-18T12:05:09.506Z,69.30
2018-02-18T12:06:05.794Z,69.30
2018-02-18T12:07:06.293Z,69.40
2018-02-18T12:08:10.795Z,69.60
2018-02-18T12:09:09.335Z,69.20
2018-02-18T12:10:05.843Z,69.10
2018-02-18T12:11:08.795Z,68.90
2018-02-18T12:12:06.168Z,68.90
2018-02-18T12:13:06.210Z,67.90
2018-02-18T12:14:05.611Z,68.10
2018-02-18T12:15:05.709Z,68.40
2018-02-18T12:16:06.098Z,68.50
2018-02-18T12:17:05.544Z,67.80
2018-02-18T12:18:06.107Z,67.10
2018-02-18T12:19:05.937Z,66.70
2018-02-18T12:20:06.029Z,66.40
2018-02-18T12:21:05.427Z,66.00
2018-02-18T12:22:08.476Z,66.10
2018-02-18T12:23:05.909Z,66.10
2018-02-18T12:24:09.622Z,66.60
2018-02-18T12:25:05.899Z,66.60
2018-02-18T12:26:10.316Z,66.80
2018-02-18T12:27:05.686Z,66.80
2018-02-18T12:28:10.601Z,66.80
2018-02-18T12:29:09.535Z,66.50
2018-02-18T12:30:05.931Z,66.40
2018-02-18T12:31:11.272Z,65.60
2018-02-18T12:32:05.873Z,65.20
2018-02-18T12:33:06.315Z,65.20
2018-02-18T12:34:09.158Z,64.60
2018-02-18T12:35:08.874Z,65.00
2018-02-18T12:36:09.771Z,65.50
2018-02-18T12:37:06.225Z,65.40
2018-02-18T12:38:10.668Z,65.40
2018-02-18T12:39:08.472Z,63.90
2018-02-18T12:40:05.853Z,63.90
2018-02-18T12:41:09.643Z,64.40
2018-02-18T12:42:06.175Z,64.40
2018-02-18T12:43:05.509Z,64.60
2018-02-18T12:44:05.726Z,64.40
2018-02-18T12:45:09.102Z,64.50
2018-02-18T12:46:05.498Z,64.50
2018-02-18T12:47:06.266Z,64.70
2018-02-18T12:48:09.199Z,63.10
2018-02-18T12:49:05.792Z,63.10
2018-02-18T12:50:11.123Z,63.60
2018-02-18T12:51:11.423Z,63.60
2018-02-18T12:52:10.527Z,63.20